createdAt,value
2023-04-25T00:01:53.718Z,100166.13
2023-04-25T00:04:23.593Z,100160.19
2023-04-25T00:06:56.924Z,100164.56
2023-04-25T00:09:26.926Z,100171.28
2023-04-25T00:11:56.672Z,100165.50
2023-04-25T00:14:26.421Z,100141.16
2023-04-25T00:16:56.392Z,100166.91
2023-04-25T00:19:27.976Z,100164.38
2023-04-25T00:22:00.410Z,100164.56
2023-04-25T00:24:30.127Z,100161.94
2023-04-25T00:26:59.963Z,100159.47
2023-04-25T00:29:29.717Z,100158.50
2023-04-25T00:31:59.601Z,100165.19
2023-04-25T00:34:29.421Z,100150.88
2023-04-25T00:37:02.978Z,100167.34
2023-04-25T00:39:32.729Z,100154.50
2023-04-25T00:42:03.148Z,100145.94
2023-04-25T00:44:34.466Z,100152.81
2023-04-25T00:47:06.124Z,100161.47
2023-04-25T00:49:36.130Z,100159.16
2023-04-25T00:52:08.836Z,100156.56
2023-04-25T00:54:38.651Z,100156.44
2023-04-25T00:57:08.441Z,100148.00
2023-04-25T00:59:40.073Z,100137.78
2023-04-25T01:02:10.414Z,100159.31
2023-04-25T01:04:40.529Z,100148.28
2023-04-25T01:07:13.739Z,100164.31
2023-04-25T01:09:43.527Z,100153.88
2023-04-25T01:12:13.452Z,100116.75
2023-04-25T01:14:43.880Z,100159.47
2023-04-25T01:17:13.893Z,100154.63
2023-04-25T01:19:43.636Z,100167.44
2023-04-25T01:22:16.107Z,100171.88
2023-04-25T01:24:46.194Z,100168.53
2023-04-25T01:27:16.400Z,100157.44
2023-04-25T01:29:46.683Z,100142.88
2023-04-25T01:32:17.874Z,100158.03
2023-04-25T01:34:47.692Z,100164.88
2023-04-25T01:37:21.230Z,100175.16
2023-04-25T01:39:51.350Z,100173.16
2023-04-25T01:42:22.531Z,100183.09
2023-04-25T01:44:52.370Z,100187.22
2023-04-25T01:47:22.131Z,100178.44
2023-04-25T01:49:52.059Z,100208.88
2023-04-25T01:52:24.475Z,100211.41
2023-04-25T01:54:56.762Z,100197.75
2023-04-25T01:57:26.812Z,100203.69
2023-04-25T02:00:02.250Z,100212.19
2023-04-25T02:02:44.079Z,100206.22
2023-04-25T02:05:26.449Z,100208.28
2023-04-25T02:07:59.320Z,100208.56
2023-04-25T02:10:30.402Z,100190.59
2023-04-25T02:13:16.944Z,100215.44
2023-04-25T02:16:14.333Z,100226.47
2023-04-25T02:18:44.141Z,100207.66
2023-04-25T02:21:13.856Z,100217.09
2023-04-25T02:23:50.121Z,100224.00
2023-04-25T02:26:20.070Z,100196.53
2023-04-25T02:28:49.786Z,100224.09
2023-04-25T02:31:19.601Z,100206.88
2023-04-25T02:33:49.639Z,100217.09
2023-04-25T02:36:19.661Z,100231.72
2023-04-25T02:38:51.973Z,100236.84
2023-04-25T02:41:24.409Z,100230.81
2023-04-25T02:43:54.141Z,100234.28
2023-04-25T02:46:37.876Z,100236.00
2023-04-25T02:49:09.552Z,100231.72
2023-04-25T02:51:39.458Z,100242.72
2023-04-25T02:54:11.885Z,100247.84
2023-04-25T02:56:45.730Z,100249.47
2023-04-25T02:59:21.010Z,100259.59
2023-04-25T03:01:50.944Z,100257.97
2023-04-25T03:04:20.783Z,100247.53
2023-04-25T03:06:51.181Z,100257.81
2023-04-25T03:09:26.483Z,100263.00
2023-04-25T03:11:56.322Z,100261.19
2023-04-25T03:14:26.747Z,100252.69
2023-04-25T03:16:56.732Z,100250.97
2023-04-25T03:19:26.936Z,100263.94
2023-04-25T03:21:56.693Z,100259.59
2023-04-25T03:24:29.373Z,100259.81
2023-04-25T03:26:59.124Z,100261.59
2023-04-25T03:29:29.908Z,100261.66
2023-04-25T03:32:00.397Z,100261.72
2023-04-25T03:34:30.239Z,100263.50
2023-04-25T03:37:01.140Z,100272.00
2023-04-25T03:39:34.134Z,100273.06
2023-04-25T03:42:04.079Z,100260.28
2023-04-25T03:44:37.193Z,100270.19
2023-04-25T03:47:07.366Z,100279.53
2023-04-25T03:49:38.696Z,100275.31
2023-04-25T03:52:09.814Z,100276.91
2023-04-25T03:54:45.108Z,100282.03
2023-04-25T03:57:18.651Z,100286.06
2023-04-25T03:59:48.387Z,100276.56
2023-04-25T04:02:19.357Z,100287.56
2023-04-25T04:04:49.733Z,100295.91
2023-04-25T04:07:20.106Z,100287.41
2023-04-25T04:09:55.927Z,100292.56
2023-04-25T04:12:34.114Z,100277.09
2023-04-25T04:15:06.885Z,100301.94
2023-04-25T04:17:37.238Z,100297.47
2023-04-25T04:20:09.443Z,100321.34
2023-04-25T04:22:39.440Z,100317.06
2023-04-25T04:25:15.730Z,100320.47
2023-04-25T04:28:08.319Z,100316.09
2023-04-25T04:30:48.157Z,100317.69
2023-04-25T04:33:20.081Z,100327.25
2023-04-25T04:35:54.643Z,100296.13
2023-04-25T04:38:25.119Z,100330.63
2023-04-25T04:40:59.080Z,100321.31
2023-04-25T04:43:36.717Z,100338.31
2023-04-25T04:46:25.812Z,100328.91
2023-04-25T04:49:21.810Z,100337.25
2023-04-25T04:52:14.188Z,100338.00
2023-04-25T04:55:06.597Z,100342.13
2023-04-25T04:57:55.034Z,100350.00
2023-04-25T05:00:36.853Z,100358.47
2023-04-25T05:03:25.416Z,100354.81
2023-04-25T05:06:09.958Z,100364.13
2023-04-25T05:08:56.571Z,100349.09
2023-04-25T05:11:34.950Z,100370.41
2023-04-25T05:14:19.407Z,100370.41
2023-04-25T05:17:19.628Z,100362.50
2023-04-25T05:20:10.393Z,100369.22
2023-04-25T05:23:05.227Z,100377.00
2023-04-25T05:25:44.883Z,100371.97
2023-04-25T05:28:33.013Z,100374.63
2023-04-25T05:31:34.545Z,100355.75
2023-04-25T05:34:08.780Z,100360.81
2023-04-25T05:36:54.382Z,100364.13
2023-04-25T05:39:24.172Z,100366.69
2023-04-25T05:42:18.356Z,100402.63
2023-04-25T05:45:12.157Z,100405.81
2023-04-25T05:48:14.474Z,100402.63
2023-04-25T05:51:00.207Z,100408.63
2023-04-25T05:53:46.969Z,100405.97
2023-04-25T05:56:18.185Z,100397.50
2023-04-25T05:58:49.803Z,100413.81
2023-04-25T06:01:19.761Z,100401.22
2023-04-25T06:03:53.129Z,100413.50
2023-04-25T06:06:23.302Z,100404.91
2023-04-25T06:08:53.099Z,100418.72
2023-04-25T06:11:22.991Z,100417.22
2023-04-25T06:13:53.104Z,100429.13
2023-04-25T06:16:23.129Z,100419.00
2023-04-25T06:18:55.607Z,100423.16
2023-04-25T06:21:25.345Z,100434.28
2023-04-25T06:23:55.148Z,100437.00
2023-04-25T06:26:26.944Z,100446.28
2023-04-25T06:28:56.790Z,100447.06
2023-04-25T06:31:26.595Z,100448.84
2023-04-25T06:34:01.138Z,100447.50
2023-04-25T06:36:32.816Z,100456.50
2023-04-25T06:39:10.213Z,100444.44
2023-04-25T06:41:40.111Z,100423.25
2023-04-25T06:44:13.607Z,100451.53
2023-04-25T06:46:52.505Z,100441.22
2023-04-25T06:49:25.537Z,100453.78
2023-04-25T06:51:55.360Z,100468.97
2023-04-25T06:54:26.044Z,100446.09
2023-04-25T06:57:04.202Z,100463.16
2023-04-25T06:59:36.479Z,100458.91
2023-04-25T07:02:07.429Z,100449.78
2023-04-25T07:04:40.189Z,100466.66
2023-04-25T07:07:10.290Z,100461.63
2023-04-25T07:09:49.341Z,100450.63
2023-04-25T07:12:19.149Z,100472.91
2023-04-25T07:14:48.963Z,100467.75
2023-04-25T07:17:19.223Z,100467.63
2023-04-25T07:19:52.606Z,100461.41
2023-04-25T07:22:22.415Z,100477.97
2023-04-25T07:24:54.342Z,100473.94
2023-04-25T07:27:25.773Z,100454.56
2023-04-25T07:30:00.391Z,100482.75
2023-04-25T07:32:31.003Z,100471.66
2023-04-25T07:35:04.497Z,100477.66
2023-04-25T07:37:34.307Z,100493.75
2023-04-25T07:40:14.090Z,100496.69
2023-04-25T07:42:49.494Z,100478.81
2023-04-25T07:45:25.563Z,100517.44
2023-04-25T07:47:56.065Z,100465.22
2023-04-25T07:50:28.835Z,100491.41
2023-04-25T07:52:58.889Z,100465.22
2023-04-25T07:55:37.630Z,100442.81
2023-04-25T07:58:16.668Z,100491.66
2023-04-25T08:00:49.426Z,100489.53
2023-04-25T08:03:33.383Z,100439.63
2023-04-25T08:06:08.332Z,100499.44
2023-04-25T08:08:45.804Z,100512.25
2023-04-25T08:11:20.095Z,100514.88
2023-04-25T08:13:49.809Z,100514.84
2023-04-25T08:16:19.816Z,100525.81
2023-04-25T08:18:50.470Z,100519.34
2023-04-25T08:21:23.321Z,100520.34
2023-04-25T08:23:53.310Z,100539.53
2023-04-25T08:26:28.328Z,100537.34
2023-04-25T08:28:58.361Z,100537.69
2023-04-25T08:31:28.241Z,100534.50
2023-04-25T08:34:01.862Z,100539.28
2023-04-25T08:37:00.355Z,100536.97
2023-04-25T08:39:43.338Z,100534.09
2023-04-25T08:42:28.157Z,100530.31
2023-04-25T08:44:58.277Z,100548.03
2023-04-25T08:47:34.216Z,100554.59
2023-04-25T08:50:06.593Z,100534.66
2023-04-25T08:52:41.461Z,100559.81
2023-04-25T08:55:13.443Z,100567.72
2023-04-25T08:57:44.393Z,100539.38
2023-04-25T09:00:15.887Z,100569.91
2023-04-25T09:02:47.742Z,100566.66
2023-04-25T09:05:20.218Z,100573.75
2023-04-25T09:07:54.128Z,100588.47
2023-04-25T09:10:24.011Z,100583.31
2023-04-25T09:13:07.464Z,100564.53
2023-04-25T09:15:54.762Z,100579.09
2023-04-25T09:18:38.838Z,100572.16
2023-04-25T09:21:14.138Z,100587.19
2023-04-25T09:23:50.942Z,100585.34
2023-04-25T09:26:22.563Z,100582.19
2023-04-25T09:29:08.305Z,100578.47
2023-04-25T09:31:40.919Z,100587.06
2023-04-25T09:34:16.832Z,100605.25
2023-04-25T09:36:51.826Z,100589.94
2023-04-25T09:40:04.112Z,100602.50
2023-04-25T09:42:36.609Z,100611.84
2023-04-25T09:45:07.730Z,100593.19
2023-04-25T09:47:45.131Z,100583.81
2023-04-25T09:50:20.778Z,100556.78
2023-04-25T09:53:08.172Z,100554.22
2023-04-25T09:56:10.225Z,100621.47
2023-04-25T09:58:41.357Z,100603.00
2023-04-25T10:01:13.976Z,100528.09
2023-04-25T10:04:01.770Z,100601.78
2023-04-25T10:06:46.534Z,100612.81
2023-04-25T10:09:19.726Z,100622.53
2023-04-25T10:11:52.541Z,100621.00
2023-04-25T10:14:23.448Z,100620.28
2023-04-25T10:16:54.845Z,100617.13
2023-04-25T10:19:25.603Z,100619.44
2023-04-25T10:21:59.715Z,100621.59
2023-04-25T10:24:30.817Z,100631.31
2023-04-25T10:27:03.896Z,100631.97
2023-04-25T10:29:33.784Z,100637.63
2023-04-25T10:32:03.661Z,100618.34
2023-04-25T10:34:44.022Z,100633.09
2023-04-25T10:37:14.481Z,100608.34
2023-04-25T10:39:46.014Z,100625.88
2023-04-25T10:42:18.714Z,100629.50
2023-04-25T10:45:05.549Z,100642.06
2023-04-25T10:47:39.617Z,100644.75
2023-04-25T10:50:11.828Z,100650.94
2023-04-25T10:52:42.995Z,100606.38
2023-04-25T10:55:13.177Z,100653.63
2023-04-25T10:57:48.589Z,100652.38
2023-04-25T11:00:20.785Z,100659.72
2023-04-25T11:02:52.325Z,100661.19
2023-04-25T11:05:30.872Z,100663.63
2023-04-25T11:08:07.554Z,100669.81
2023-04-25T11:10:39.091Z,100659.53
2023-04-25T11:13:11.426Z,100657.13
2023-04-25T11:15:41.269Z,100639.38
2023-04-25T11:18:11.208Z,100671.75
2023-04-25T11:20:41.376Z,100656.66
2023-04-25T11:23:11.733Z,100672.06
2023-04-25T11:25:42.340Z,100653.19
2023-04-25T11:28:14.725Z,100678.47
2023-04-25T11:30:52.230Z,100650.50
2023-04-25T11:33:26.643Z,100680.66
2023-04-25T11:35:58.169Z,100664.72
2023-04-25T11:38:29.612Z,100665.06
2023-04-25T11:40:59.644Z,100658.03
2023-04-25T11:43:32.515Z,100675.19
2023-04-25T11:46:02.423Z,100671.13
2023-04-25T11:48:41.175Z,100643.25
2023-04-25T11:51:11.552Z,100671.78
2023-04-25T11:53:45.249Z,100670.13
2023-04-25T11:56:15.257Z,100676.28
2023-04-25T11:59:04.641Z,100679.09
2023-04-25T12:01:36.459Z,100662.78
2023-04-25T12:04:17.088Z,100669.00
2023-04-25T12:06:50.325Z,100672.50
2023-04-25T12:09:22.735Z,100643.38
2023-04-25T12:11:57.122Z,100649.31
2023-04-25T12:14:31.090Z,100681.13
2023-04-25T12:17:02.251Z,100677.66
2023-04-25T12:19:37.257Z,100690.28
2023-04-25T12:22:22.282Z,100670.69
2023-04-25T12:24:54.323Z,100688.19
2023-04-25T12:27:24.099Z,100729.88
2023-04-25T12:29:58.390Z,100728.06
2023-04-25T12:32:28.415Z,100707.34
2023-04-25T12:34:58.209Z,100687.88
2023-04-25T12:37:28.096Z,100701.66
2023-04-25T12:39:57.805Z,100724.09
2023-04-25T12:42:27.557Z,100689.75
2023-04-25T12:44:59.866Z,100701.97
2023-04-25T12:47:29.702Z,100719.28
2023-04-25T12:49:59.511Z,100707.19
2023-04-25T12:52:29.228Z,100688.63
2023-04-25T12:54:58.951Z,100706.34
2023-04-25T12:57:28.702Z,100717.00
2023-04-25T13:00:01.692Z,100679.56
2023-04-25T13:02:31.573Z,100722.28
2023-04-25T13:05:01.448Z,100700.28
2023-04-25T13:07:31.962Z,100690.22
2023-04-25T13:10:04.013Z,100697.16
2023-04-25T13:12:33.766Z,100697.06
2023-04-25T13:15:06.430Z,100679.25
2023-04-25T13:17:36.248Z,100690.34
2023-04-25T13:20:09.768Z,100704.75
2023-04-25T13:22:40.482Z,100679.03
2023-04-25T13:25:11.832Z,100677.50
2023-04-25T13:27:41.821Z,100676.56
2023-04-25T13:30:15.138Z,100677.16
2023-04-25T13:32:45.073Z,100713.41
2023-04-25T13:35:16.451Z,100730.16
2023-04-25T13:37:46.475Z,100725.09
2023-04-25T13:40:16.785Z,100728.06
2023-04-25T13:42:46.999Z,100736.19
2023-04-25T13:45:19.422Z,100735.38
2023-04-25T13:47:49.299Z,100740.56
2023-04-25T13:50:19.462Z,100731.25
2023-04-25T13:52:49.330Z,100731.63
2023-04-25T13:55:19.450Z,100747.50
2023-04-25T13:57:49.512Z,100707.53
2023-04-25T14:00:22.593Z,100731.41
2023-04-25T14:02:52.438Z,100735.50
2023-04-25T14:05:22.320Z,100732.59
2023-04-25T14:07:52.224Z,100715.44
2023-04-25T14:10:21.924Z,100692.31
2023-04-25T14:12:51.870Z,100740.66
2023-04-25T14:15:24.271Z,100748.41
2023-04-25T14:17:54.128Z,100749.34
2023-04-25T14:20:25.069Z,100762.84
2023-04-25T14:22:55.666Z,100693.56
2023-04-25T14:25:25.590Z,100738.50
2023-04-25T14:27:55.454Z,100733.19
2023-04-25T14:30:27.833Z,100758.56
2023-04-25T14:32:58.157Z,100751.22
2023-04-25T14:35:27.939Z,100773.53
2023-04-25T14:37:57.979Z,100758.19
2023-04-25T14:40:27.971Z,100759.59
2023-04-25T14:42:58.196Z,100749.16
2023-04-25T14:45:30.705Z,100750.44
2023-04-25T14:48:00.823Z,100761.91
2023-04-25T14:50:30.651Z,100745.75
2023-04-25T14:53:01.797Z,100765.97
2023-04-25T14:55:31.871Z,100766.69
2023-04-25T14:58:02.230Z,100739.81
2023-04-25T15:00:34.704Z,100770.16
2023-04-25T15:03:04.810Z,100771.91
2023-04-25T15:05:34.741Z,100777.97
2023-04-25T15:08:06.403Z,100771.88
2023-04-25T15:10:36.273Z,100775.47
2023-04-25T15:13:06.953Z,100800.53
2023-04-25T15:15:39.286Z,100810.31
2023-04-25T15:18:09.053Z,100807.19
2023-04-25T15:20:38.871Z,100806.22
2023-04-25T15:23:08.807Z,100797.59
2023-04-25T15:25:38.537Z,100809.78
2023-04-25T15:28:08.379Z,100797.06
2023-04-25T15:30:41.256Z,100805.16
2023-04-25T15:33:11.093Z,100816.56
2023-04-25T15:35:40.981Z,100818.59
2023-04-25T15:38:12.428Z,100813.56
2023-04-25T15:40:42.189Z,100815.41
2023-04-25T15:43:16.192Z,100812.81
2023-04-25T15:45:48.827Z,100812.81
2023-04-25T15:48:18.575Z,100768.72
2023-04-25T15:50:48.452Z,100781.81
2023-04-25T15:53:18.260Z,100806.81
2023-04-25T15:55:48.241Z,100813.06
2023-04-25T15:58:18.081Z,100794.03
2023-04-25T16:00:51.926Z,100808.94
2023-04-25T16:03:22.394Z,100819.84
2023-04-25T16:05:52.991Z,100816.91
2023-04-25T16:08:22.736Z,100818.78
2023-04-25T16:10:52.941Z,100807.28
2023-04-25T16:13:22.911Z,100837.34
2023-04-25T16:15:55.287Z,100823.84
2023-04-25T16:18:25.164Z,100846.47
2023-04-25T16:20:55.029Z,100842.00
2023-04-25T16:23:26.622Z,100829.94
2023-04-25T16:25:56.385Z,100849.13
2023-04-25T16:28:26.136Z,100843.81
2023-04-25T16:30:58.494Z,100850.75
2023-04-25T16:33:28.226Z,100840.75
2023-04-25T16:35:58.237Z,100850.00
2023-04-25T16:38:28.030Z,100850.75
2023-04-25T16:40:57.804Z,100846.94
2023-04-25T16:43:27.662Z,100836.50
2023-04-25T16:46:00.045Z,100849.06
2023-04-25T16:48:29.763Z,100857.81
2023-04-25T16:50:59.606Z,100846.56
2023-04-25T16:53:29.560Z,100848.31
2023-04-25T16:55:59.313Z,100847.41
2023-04-25T16:58:29.383Z,100854.28
2023-04-25T17:01:01.910Z,100854.41
2023-04-25T17:03:35.683Z,100847.63
2023-04-25T17:06:05.953Z,100856.81
2023-04-25T17:08:35.920Z,100856.72
2023-04-25T17:11:06.192Z,100853.34
2023-04-25T17:13:36.648Z,100870.16
2023-04-25T17:16:11.371Z,100866.03
2023-04-25T17:18:42.114Z,100852.09
2023-04-25T17:21:12.199Z,100856.53
2023-04-25T17:23:45.692Z,100851.63
2023-04-25T17:26:16.609Z,100872.50
2023-04-25T17:28:49.829Z,100851.22
2023-04-25T17:31:22.772Z,100861.91
2023-04-25T17:33:53.099Z,100868.69
2023-04-25T17:36:23.152Z,100871.47
2023-04-25T17:38:53.168Z,100874.06
2023-04-25T17:41:23.079Z,100878.34
2023-04-25T17:43:53.092Z,100888.25
2023-04-25T17:46:26.941Z,100874.19
2023-04-25T17:48:57.699Z,100887.91
2023-04-25T17:51:27.668Z,100882.78
2023-04-25T17:53:57.466Z,100897.59
2023-04-25T17:56:27.872Z,100859.59
2023-04-25T17:58:58.006Z,100878.38
2023-04-25T18:01:30.522Z,100894.75
2023-04-25T18:04:00.946Z,100823.69
2023-04-25T18:06:33.066Z,100893.34
2023-04-25T18:09:03.246Z,100878.47
2023-04-25T18:11:33.029Z,100907.78
2023-04-25T18:14:02.925Z,100909.50
2023-04-25T18:16:35.426Z,100905.47
2023-04-25T18:19:05.826Z,100890.63
2023-04-25T18:21:36.466Z,100861.09
2023-04-25T18:24:06.656Z,100908.69
2023-04-25T18:26:36.451Z,100916.16
2023-04-25T18:29:07.651Z,100917.97
2023-04-25T18:31:40.217Z,100929.81
2023-04-25T18:34:10.207Z,100930.25
2023-04-25T18:36:40.763Z,100938.66
2023-04-25T18:39:22.120Z,100937.66
2023-04-25T18:41:59.311Z,100940.78
2023-04-25T18:44:33.863Z,100950.03
2023-04-25T18:47:06.456Z,100904.66
2023-04-25T18:49:37.635Z,100930.59
2023-04-25T18:52:08.714Z,100959.22
2023-04-25T18:54:38.701Z,100948.47
2023-04-25T18:57:09.524Z,100965.34
2023-04-25T18:59:39.343Z,100975.25
2023-04-25T19:02:12.463Z,100970.84
2023-04-25T19:04:42.316Z,100960.41
2023-04-25T19:07:12.409Z,100979.41
2023-04-25T19:09:42.198Z,100975.69
2023-04-25T19:12:12.051Z,100992.31
2023-04-25T19:14:41.977Z,100991.09
2023-04-25T19:17:14.406Z,100994.44
2023-04-25T19:19:44.206Z,100938.25
2023-04-25T19:22:14.369Z,101007.31
2023-04-25T19:24:44.111Z,100947.44
2023-04-25T19:27:14.263Z,101018.81
2023-04-25T19:29:48.333Z,100999.00
2023-04-25T19:32:20.803Z,101008.56
2023-04-25T19:34:50.545Z,100993.38
2023-04-25T19:37:20.311Z,101027.94
2023-04-25T19:39:50.059Z,101024.66
2023-04-25T19:42:19.871Z,101023.84
2023-04-25T19:44:49.671Z,101006.56
2023-04-25T19:47:22.261Z,101012.53
2023-04-25T19:49:52.455Z,101020.38
2023-04-25T19:52:22.516Z,101007.47
2023-04-25T19:54:52.428Z,101028.06
2023-04-25T19:57:22.217Z,101025.09
2023-04-25T19:59:51.955Z,101014.59
2023-04-25T20:02:24.365Z,101021.56
2023-04-25T20:04:54.216Z,101030.53
2023-04-25T20:07:24.686Z,101025.16
2023-04-25T20:09:55.465Z,101034.41
2023-04-25T20:12:29.991Z,101030.84
2023-04-25T20:15:01.656Z,101037.69
2023-04-25T20:17:35.687Z,101048.84
2023-04-25T20:20:06.785Z,101057.28
2023-04-25T20:22:42.804Z,101048.66
2023-04-25T20:25:17.519Z,101039.81
2023-04-25T20:27:48.455Z,101050.59
2023-04-25T20:30:20.000Z,101057.75
2023-04-25T20:32:53.190Z,101069.00
2023-04-25T20:35:24.853Z,101076.09
2023-04-25T20:37:58.845Z,101064.03
2023-04-25T20:40:29.873Z,101034.59
2023-04-25T20:43:02.020Z,101069.56
2023-04-25T20:45:34.710Z,101075.53
2023-04-25T20:48:08.214Z,101078.28
2023-04-25T20:50:39.944Z,100996.25
2023-04-25T20:53:13.827Z,101073.13
2023-04-25T20:55:44.643Z,101064.47
2023-04-25T20:58:15.371Z,101066.41
2023-04-25T21:00:47.864Z,101068.78
2023-04-25T21:03:21.367Z,101068.03
2023-04-25T21:05:52.667Z,101072.13
2023-04-25T21:08:24.065Z,101047.13
2023-04-25T21:10:57.122Z,101067.69
2023-04-25T21:13:29.313Z,101063.25
2023-04-25T21:16:01.296Z,101063.16
2023-04-25T21:18:35.192Z,101057.94
2023-04-25T21:21:06.296Z,101072.22
2023-04-25T21:23:38.833Z,101039.44
2023-04-25T21:26:09.527Z,101044.06
2023-04-25T21:28:40.154Z,101073.47
2023-04-25T21:31:10.927Z,101075.31
2023-04-25T21:33:45.097Z,101073.56
2023-04-25T21:36:17.584Z,101072.47
2023-04-25T21:38:50.413Z,101053.16
2023-04-25T21:41:23.108Z,101078.78
2023-04-25T21:43:58.028Z,101055.50
2023-04-25T21:46:29.099Z,101056.28
2023-04-25T21:49:04.113Z,101071.72
2023-04-25T21:51:35.259Z,101078.16
2023-04-25T21:54:06.908Z,101074.63
2023-04-25T21:56:38.048Z,101071.94
2023-04-25T21:59:12.191Z,101059.47
2023-04-25T22:01:45.694Z,101090.13
2023-04-25T22:04:19.490Z,101075.19
2023-04-25T22:06:50.409Z,101069.44
2023-04-25T22:09:21.321Z,101080.38
2023-04-25T22:11:55.442Z,101090.47
2023-04-25T22:14:27.080Z,101097.59
2023-04-25T22:16:57.990Z,101070.78
2023-04-25T22:19:32.729Z,101095.31
2023-04-25T22:22:03.995Z,101092.50
2023-04-25T22:24:37.636Z,101080.69
2023-04-25T22:27:11.437Z,101091.16
2023-04-25T22:29:42.196Z,101088.66
2023-04-25T22:32:12.896Z,101084.53
2023-04-25T22:34:47.532Z,101045.69
2023-04-25T22:37:19.916Z,101098.44
2023-04-25T22:39:50.556Z,101106.81
2023-04-25T22:42:21.639Z,101082.53
2023-04-25T22:44:53.318Z,101108.16
2023-04-25T22:47:24.994Z,101105.91
2023-04-25T22:49:58.348Z,101113.75
2023-04-25T22:52:29.416Z,101112.88
2023-04-25T22:54:59.915Z,101098.09
2023-04-25T22:57:30.701Z,101085.97
2023-04-25T23:00:02.061Z,101113.63
2023-04-25T23:02:33.066Z,101097.78
2023-04-25T23:05:07.696Z,101121.38
2023-04-25T23:07:42.747Z,101113.91
2023-04-25T23:10:14.554Z,101112.06
2023-04-25T23:12:46.867Z,101110.59
2023-04-25T23:15:17.773Z,101124.13
2023-04-25T23:17:48.596Z,101118.66
2023-04-25T23:20:22.061Z,101111.78
2023-04-25T23:22:56.458Z,101115.09
2023-04-25T23:25:28.814Z,101109.34
2023-04-25T23:27:59.704Z,101115.66
2023-04-25T23:30:31.217Z,101120.72
2023-04-25T23:33:02.021Z,101124.97
2023-04-25T23:35:41.492Z,101115.69
2023-04-25T23:38:12.476Z,101117.94
2023-04-25T23:40:43.069Z,101127.94
2023-04-25T23:43:14.218Z,101129.44
2023-04-25T23:45:47.176Z,101129.22
2023-04-25T23:48:18.682Z,101135.28
2023-04-25T23:50:52.186Z,101131.97
2023-04-25T23:53:25.134Z,101108.06
2023-04-25T23:55:55.187Z,101124.97
2023-04-25T23:58:24.913Z,101116.50
